sensor_id;sensor_type;location;lat;lon;timestamp;noise_LAeq;noise_LA_min;noise_LA_max;noise_LA01;noise_LA95
41704;Laerm;861;48.808;9.006;2023-10-31T00:02:01;29.85;28.60;31.29;;
41704;Laerm;861;48.808;9.006;2023-10-31T00:04:27;29.84;28.62;30.95;;
41704;Laerm;861;48.808;9.006;2023-10-31T00:06:54;29.84;28.60;31.05;;
41704;Laerm;861;48.808;9.006;2023-10-31T00:09:20;29.85;28.49;30.97;;
41704;Laerm;861;48.808;9.006;2023-10-31T00:11:47;29.83;28.67;31.00;;
41704;Laerm;861;48.808;9.006;2023-10-31T00:14:13;29.83;28.11;30.97;;
41704;Laerm;861;48.808;9.006;2023-10-31T00:16:40;29.82;28.42;31.23;;
41704;Laerm;861;48.808;9.006;2023-10-31T00:19:06;29.81;28.36;31.03;;
41704;Laerm;861;48.808;9.006;2023-10-31T00:21:33;29.82;28.25;30.96;;
41704;Laerm;861;48.808;9.006;2023-10-31T00:24:00;29.81;28.44;30.91;;
41704;Laerm;861;48.808;9.006;2023-10-31T00:26:26;29.81;28.40;30.95;;
41704;Laerm;861;48.808;9.006;2023-10-31T00:28:53;29.82;28.53;31.06;;
41704;Laerm;861;48.808;9.006;2023-10-31T00:31:20;29.81;28.45;31.27;;
41704;Laerm;861;48.808;9.006;2023-10-31T00:33:47;29.81;28.04;31.14;;
41704;Laerm;861;48.808;9.006;2023-10-31T00:36:14;29.82;28.50;31.12;;
41704;Laerm;861;48.808;9.006;2023-10-31T00:38:40;29.81;28.52;30.97;;
41704;Laerm;861;48.808;9.006;2023-10-31T00:41:07;29.81;28.28;30.97;;
41704;Laerm;861;48.808;9.006;2023-10-31T00:43:34;29.81;28.53;31.17;;
41704;Laerm;861;48.808;9.006;2023-10-31T00:46:03;29.80;28.37;30.96;;
41704;Laerm;861;48.808;9.006;2023-10-31T00:48:31;29.80;28.44;31.08;;
41704;Laerm;861;48.808;9.006;2023-10-31T00:51:04;29.82;28.39;31.13;;
41704;Laerm;861;48.808;9.006;2023-10-31T00:53:32;29.80;28.00;31.03;;
41704;Laerm;861;48.808;9.006;2023-10-31T00:55:58;29.80;28.37;30.95;;
41704;Laerm;861;48.808;9.006;2023-10-31T00:58:25;29.79;28.48;31.01;;
41704;Laerm;861;48.808;9.006;2023-10-31T01:00:51;29.79;28.49;31.02;;
41704;Laerm;861;48.808;9.006;2023-10-31T01:03:18;29.78;28.43;31.05;;
41704;Laerm;861;48.808;9.006;2023-10-31T01:05:44;29.78;28.53;30.96;;
41704;Laerm;861;48.808;9.006;2023-10-31T01:08:11;29.77;28.20;31.03;;
41704;Laerm;861;48.808;9.006;2023-10-31T01:10:38;29.79;28.52;31.15;;
41704;Laerm;861;48.808;9.006;2023-10-31T01:13:04;29.78;28.46;31.04;;
41704;Laerm;861;48.808;9.006;2023-10-31T01:15:31;29.78;28.52;34.33;;
41704;Laerm;861;48.808;9.006;2023-10-31T01:17:57;29.77;28.45;30.99;;
41704;Laerm;861;48.808;9.006;2023-10-31T01:20:24;29.77;28.30;30.89;;
41704;Laerm;861;48.808;9.006;2023-10-31T01:22:51;29.76;28.42;30.96;;
41704;Laerm;861;48.808;9.006;2023-10-31T01:25:17;29.74;28.17;30.94;;
41704;Laerm;861;48.808;9.006;2023-10-31T01:27:44;29.75;28.41;31.02;;
41704;Laerm;861;48.808;9.006;2023-10-31T01:30:12;29.75;28.39;30.91;;
41704;Laerm;861;48.808;9.006;2023-10-31T01:32:38;29.74;28.26;31.11;;
41704;Laerm;861;48.808;9.006;2023-10-31T01:35:05;29.75;28.56;30.86;;
41704;Laerm;861;48.808;9.006;2023-10-31T01:37:32;29.74;28.21;30.94;;
41704;Laerm;861;48.808;9.006;2023-10-31T01:39:58;29.76;28.28;31.07;;
41704;Laerm;861;48.808;9.006;2023-10-31T01:42:25;29.75;28.49;31.08;;
41704;Laerm;861;48.808;9.006;2023-10-31T01:44:51;29.75;28.52;30.85;;
41704;Laerm;861;48.808;9.006;2023-10-31T01:47:18;29.74;28.41;30.93;;
41704;Laerm;861;48.808;9.006;2023-10-31T01:49:45;29.75;28.49;31.30;;
41704;Laerm;861;48.808;9.006;2023-10-31T01:52:12;29.74;28.43;30.87;;
41704;Laerm;861;48.808;9.006;2023-10-31T01:54:39;29.74;28.53;30.93;;
41704;Laerm;861;48.808;9.006;2023-10-31T01:57:06;29.73;28.47;30.90;;
41704;Laerm;861;48.808;9.006;2023-10-31T01:59:33;29.74;28.32;31.37;;
41704;Laerm;861;48.808;9.006;2023-10-31T02:02:01;29.73;27.93;31.02;;
41704;Laerm;861;48.808;9.006;2023-10-31T02:04:30;29.72;28.59;30.99;;
41704;Laerm;861;48.808;9.006;2023-10-31T02:06:56;29.73;28.48;30.91;;
41704;Laerm;861;48.808;9.006;2023-10-31T02:09:23;29.73;28.60;30.91;;
41704;Laerm;861;48.808;9.006;2023-10-31T02:11:53;29.74;28.52;31.16;;
41704;Laerm;861;48.808;9.006;2023-10-31T02:14:24;29.72;28.58;30.97;;
41704;Laerm;861;48.808;9.006;2023-10-31T02:16:52;29.71;28.49;31.10;;
41704;Laerm;861;48.808;9.006;2023-10-31T02:19:21;29.72;28.37;30.97;;
41704;Laerm;861;48.808;9.006;2023-10-31T02:21:48;29.72;28.46;30.90;;
41704;Laerm;861;48.808;9.006;2023-10-31T02:24:15;29.71;28.36;30.87;;
41704;Laerm;861;48.808;9.006;2023-10-31T02:26:41;29.72;28.52;31.11;;
41704;Laerm;861;48.808;9.006;2023-10-31T02:29:08;29.72;28.39;30.78;;
41704;Laerm;861;48.808;9.006;2023-10-31T02:31:34;29.72;28.38;30.92;;
41704;Laerm;861;48.808;9.006;2023-10-31T02:34:01;29.71;28.33;30.92;;
41704;Laerm;861;48.808;9.006;2023-10-31T02:36:28;29.71;28.19;30.87;;
41704;Laerm;861;48.808;9.006;2023-10-31T02:38:56;29.70;28.49;30.88;;
41704;Laerm;861;48.808;9.006;2023-10-31T02:41:22;29.71;28.56;31.01;;
41704;Laerm;861;48.808;9.006;2023-10-31T02:43:50;29.71;28.37;30.80;;
41704;Laerm;861;48.808;9.006;2023-10-31T02:46:16;29.71;28.43;30.88;;
41704;Laerm;861;48.808;9.006;2023-10-31T02:48:44;29.70;28.34;30.91;;
41704;Laerm;861;48.808;9.006;2023-10-31T02:51:10;37.92;28.35;73.46;;
41704;Laerm;861;48.808;9.006;2023-10-31T02:53:37;29.69;28.40;31.10;;
41704;Laerm;861;48.808;9.006;2023-10-31T02:56:04;29.69;28.38;31.12;;
41704;Laerm;861;48.808;9.006;2023-10-31T02:58:31;29.70;28.40;31.04;;
41704;Laerm;861;48.808;9.006;2023-10-31T03:00:57;29.69;28.41;30.96;;
41704;Laerm;861;48.808;9.006;2023-10-31T03:03:24;29.73;28.49;45.55;;
41704;Laerm;861;48.808;9.006;2023-10-31T03:05:51;29.69;28.49;30.89;;
41704;Laerm;861;48.808;9.006;2023-10-31T03:08:17;29.68;28.13;31.08;;
41704;Laerm;861;48.808;9.006;2023-10-31T03:10:49;29.68;28.26;30.93;;
41704;Laerm;861;48.808;9.006;2023-10-31T03:13:19;29.68;28.38;30.85;;
41704;Laerm;861;48.808;9.006;2023-10-31T03:15:47;29.68;28.48;30.94;;
41704;Laerm;861;48.808;9.006;2023-10-31T03:18:14;29.68;28.38;30.97;;
41704;Laerm;861;48.808;9.006;2023-10-31T03:20:44;29.68;28.49;30.87;;
41704;Laerm;861;48.808;9.006;2023-10-31T03:23:13;29.68;28.40;30.80;;
41704;Laerm;861;48.808;9.006;2023-10-31T03:25:40;29.68;28.18;31.07;;
41704;Laerm;861;48.808;9.006;2023-10-31T03:28:20;29.67;28.38;30.83;;
41704;Laerm;861;48.808;9.006;2023-10-31T03:30:49;29.68;28.47;30.86;;
41704;Laerm;861;48.808;9.006;2023-10-31T03:33:17;29.69;28.34;30.93;;
41704;Laerm;861;48.808;9.006;2023-10-31T03:35:45;29.67;28.21;31.31;;
41704;Laerm;861;48.808;9.006;2023-10-31T03:38:11;29.67;28.39;31.00;;
41704;Laerm;861;48.808;9.006;2023-10-31T03:40:38;29.68;28.45;30.82;;
41704;Laerm;861;48.808;9.006;2023-10-31T03:43:04;29.68;28.15;31.35;;
41704;Laerm;861;48.808;9.006;2023-10-31T03:45:31;29.68;28.46;30.83;;
41704;Laerm;861;48.808;9.006;2023-10-31T03:47:58;29.67;28.46;30.88;;
41704;Laerm;861;48.808;9.006;2023-10-31T03:50:24;29.67;28.41;30.75;;
41704;Laerm;861;48.808;9.006;2023-10-31T03:52:51;29.66;28.41;30.90;;
41704;Laerm;861;48.808;9.006;2023-10-31T03:55:17;29.67;28.16;30.97;;
41704;Laerm;861;48.808;9.006;2023-10-31T03:57:44;29.67;28.35;30.94;;
41704;Laerm;861;48.808;9.006;2023-10-31T04:00:12;29.67;28.32;30.86;;
41704;Laerm;861;48.808;9.006;2023-10-31T04:02:40;29.66;28.41;30.73;;
41704;Laerm;861;48.808;9.006;2023-10-31T04:05:08;29.66;28.38;30.83;;
41704;Laerm;861;48.808;9.006;2023-10-31T04:07:34;29.64;27.92;30.98;;
41704;Laerm;861;48.808;9.006;2023-10-31T04:10:01;29.64;28.22;30.92;;
41704;Laerm;861;48.808;9.006;2023-10-31T04:12:27;29.63;28.38;30.70;;
41704;Laerm;861;48.808;9.006;2023-10-31T04:14:54;29.62;28.19;30.79;;
41704;Laerm;861;48.808;9.006;2023-10-31T04:17:20;29.62;28.37;30.87;;
41704;Laerm;861;48.808;9.006;2023-10-31T04:19:47;29.62;28.35;30.87;;
41704;Laerm;861;48.808;9.006;2023-10-31T04:22:13;29.63;28.17;31.05;;
41704;Laerm;861;48.808;9.006;2023-10-31T04:24:40;29.62;28.33;30.84;;
41704;Laerm;861;48.808;9.006;2023-10-31T04:27:07;29.62;28.21;31.17;;
41704;Laerm;861;48.808;9.006;2023-10-31T04:29:34;29.61;28.31;30.88;;
41704;Laerm;861;48.808;9.006;2023-10-31T04:32:00;29.61;28.21;30.77;;
41704;Laerm;861;48.808;9.006;2023-10-31T04:34:27;29.60;28.31;30.77;;
41704;Laerm;861;48.808;9.006;2023-10-31T04:36:54;29.59;27.95;30.89;;
41704;Laerm;861;48.808;9.006;2023-10-31T04:39:20;29.60;28.36;38.14;;
41704;Laerm;861;48.808;9.006;2023-10-31T04:41:47;29.60;28.24;30.78;;
41704;Laerm;861;48.808;9.006;2023-10-31T04:44:14;29.60;28.41;30.78;;
41704;Laerm;861;48.808;9.006;2023-10-31T04:46:40;29.60;28.02;31.05;;
41704;Laerm;861;48.808;9.006;2023-10-31T04:49:07;29.59;28.38;30.72;;
41704;Laerm;861;48.808;9.006;2023-10-31T04:51:36;29.59;28.15;30.90;;
41704;Laerm;861;48.808;9.006;2023-10-31T04:54:04;29.60;28.36;30.81;;
41704;Laerm;861;48.808;9.006;2023-10-31T04:56:31;29.60;28.47;30.71;;
41704;Laerm;861;48.808;9.006;2023-10-31T04:58:58;29.60;28.07;30.99;;
41704;Laerm;861;48.808;9.006;2023-10-31T05:01:25;29.60;28.29;30.82;;
41704;Laerm;861;48.808;9.006;2023-10-31T05:03:51;29.60;28.03;30.88;;
41704;Laerm;861;48.808;9.006;2023-10-31T05:06:23;29.59;27.76;30.83;;
41704;Laerm;861;48.808;9.006;2023-10-31T05:08:50;29.59;28.29;30.83;;
41704;Laerm;861;48.808;9.006;2023-10-31T05:11:20;29.59;28.12;30.78;;
41704;Laerm;861;48.808;9.006;2023-10-31T05:13:46;29.58;28.21;30.72;;
41704;Laerm;861;48.808;9.006;2023-10-31T05:16:13;29.60;28.37;30.96;;
41704;Laerm;861;48.808;9.006;2023-10-31T05:18:40;29.61;28.14;30.82;;
41704;Laerm;861;48.808;9.006;2023-10-31T05:21:06;29.59;28.39;30.93;;
41704;Laerm;861;48.808;9.006;2023-10-31T05:23:33;29.59;28.20;30.86;;
41704;Laerm;861;48.808;9.006;2023-10-31T05:25:59;29.58;28.11;30.94;;
41704;Laerm;861;48.808;9.006;2023-10-31T05:28:26;29.58;28.13;30.69;;
41704;Laerm;861;48.808;9.006;2023-10-31T05:30:52;29.59;28.23;31.01;;
41704;Laerm;861;48.808;9.006;2023-10-31T05:33:19;29.60;28.40;30.84;;
41704;Laerm;861;48.808;9.006;2023-10-31T05:35:45;29.58;27.99;30.75;;
41704;Laerm;861;48.808;9.006;2023-10-31T05:38:12;29.59;28.36;30.84;;
41704;Laerm;861;48.808;9.006;2023-10-31T05:40:39;29.59;28.35;30.84;;
41704;Laerm;861;48.808;9.006;2023-10-31T05:43:06;29.58;28.24;30.78;;
41704;Laerm;861;48.808;9.006;2023-10-31T05:45:32;29.58;28.36;30.80;;
41704;Laerm;861;48.808;9.006;2023-10-31T05:48:00;29.59;28.30;30.81;;
41704;Laerm;861;48.808;9.006;2023-10-31T05:50:26;29.58;28.29;30.93;;
41704;Laerm;861;48.808;9.006;2023-10-31T05:52:53;29.59;28.07;30.90;;
41704;Laerm;861;48.808;9.006;2023-10-31T05:55:19;29.58;27.95;30.68;;
41704;Laerm;861;48.808;9.006;2023-10-31T05:57:46;29.58;28.30;30.71;;
41704;Laerm;861;48.808;9.006;2023-10-31T06:00:13;29.59;28.30;30.79;;
41704;Laerm;861;48.808;9.006;2023-10-31T06:02:40;29.58;28.14;36.19;;
41704;Laerm;861;48.808;9.006;2023-10-31T06:05:07;29.58;28.34;30.90;;
41704;Laerm;861;48.808;9.006;2023-10-31T06:07:34;29.59;28.31;30.73;;
41704;Laerm;861;48.808;9.006;2023-10-31T06:10:00;29.58;28.16;30.68;;
41704;Laerm;861;48.808;9.006;2023-10-31T06:12:26;29.57;28.34;30.78;;
41704;Laerm;861;48.808;9.006;2023-10-31T06:14:53;29.58;28.32;30.72;;
41704;Laerm;861;48.808;9.006;2023-10-31T06:17:20;29.59;28.28;30.87;;
41704;Laerm;861;48.808;9.006;2023-10-31T06:19:46;29.58;28.24;30.75;;
41704;Laerm;861;48.808;9.006;2023-10-31T06:22:13;29.59;28.28;31.03;;
41704;Laerm;861;48.808;9.006;2023-10-31T06:24:40;29.58;28.23;30.68;;
41704;Laerm;861;48.808;9.006;2023-10-31T06:27:07;29.58;28.29;30.74;;
41704;Laerm;861;48.808;9.006;2023-10-31T06:29:33;29.58;28.28;30.92;;
41704;Laerm;861;48.808;9.006;2023-10-31T06:32:00;29.59;28.30;31.05;;
41704;Laerm;861;48.808;9.006;2023-10-31T06:34:27;29.58;28.10;30.89;;
41704;Laerm;861;48.808;9.006;2023-10-31T06:36:54;29.58;28.17;30.81;;
41704;Laerm;861;48.808;9.006;2023-10-31T06:39:20;29.57;28.26;31.04;;
41704;Laerm;861;48.808;9.006;2023-10-31T06:41:49;29.58;28.35;30.76;;
41704;Laerm;861;48.808;9.006;2023-10-31T06:44:15;29.58;28.31;30.83;;
41704;Laerm;861;48.808;9.006;2023-10-31T06:46:42;29.58;28.15;30.80;;
41704;Laerm;861;48.808;9.006;2023-10-31T06:49:08;29.59;28.21;30.93;;
41704;Laerm;861;48.808;9.006;2023-10-31T06:51:35;29.58;28.29;31.04;;
41704;Laerm;861;48.808;9.006;2023-10-31T06:54:01;29.58;28.31;30.78;;
41704;Laerm;861;48.808;9.006;2023-10-31T06:56:28;29.59;28.12;30.72;;
41704;Laerm;861;48.808;9.006;2023-10-31T06:58:55;29.58;28.22;30.88;;
41704;Laerm;861;48.808;9.006;2023-10-31T07:01:21;29.58;28.30;30.72;;
41704;Laerm;861;48.808;9.006;2023-10-31T07:03:49;29.64;28.21;30.89;;
41704;Laerm;861;48.808;9.006;2023-10-31T07:06:15;29.80;28.53;31.20;;
41704;Laerm;861;48.808;9.006;2023-10-31T07:08:42;30.54;29.13;33.80;;
41704;Laerm;861;48.808;9.006;2023-10-31T07:11:08;30.81;29.60;32.01;;
41704;Laerm;861;48.808;9.006;2023-10-31T07:13:35;30.98;29.52;32.01;;
41704;Laerm;861;48.808;9.006;2023-10-31T07:16:02;31.10;29.75;32.27;;
41704;Laerm;861;48.808;9.006;2023-10-31T07:18:28;31.26;30.02;32.52;;
41704;Laerm;861;48.808;9.006;2023-10-31T07:20:55;31.48;30.32;32.57;;
41704;Laerm;861;48.808;9.006;2023-10-31T07:23:22;31.73;30.52;32.94;;
41704;Laerm;861;48.808;9.006;2023-10-31T07:25:49;32.12;30.83;34.55;;
41704;Laerm;861;48.808;9.006;2023-10-31T07:28:15;33.31;31.59;35.01;;
41704;Laerm;861;48.808;9.006;2023-10-31T07:30:43;34.53;32.91;35.80;;
41704;Laerm;861;48.808;9.006;2023-10-31T07:33:10;34.80;33.35;36.27;;
41704;Laerm;861;48.808;9.006;2023-10-31T07:35:36;35.23;33.66;36.48;;
41704;Laerm;861;48.808;9.006;2023-10-31T07:38:03;35.27;33.97;36.49;;
41704;Laerm;861;48.808;9.006;2023-10-31T07:40:30;35.29;33.77;36.62;;
41704;Laerm;861;48.808;9.006;2023-10-31T07:42:56;35.64;34.42;38.16;;
41704;Laerm;861;48.808;9.006;2023-10-31T07:45:23;35.41;34.06;36.53;;
41704;Laerm;861;48.808;9.006;2023-10-31T07:47:49;35.53;34.29;36.87;;
41704;Laerm;861;48.808;9.006;2023-10-31T07:50:16;35.61;34.29;36.77;;
41704;Laerm;861;48.808;9.006;2023-10-31T07:52:42;35.82;34.43;36.87;;
41704;Laerm;861;48.808;9.006;2023-10-31T07:55:10;35.95;34.75;37.43;;
41704;Laerm;861;48.808;9.006;2023-10-31T07:57:38;35.65;34.25;36.76;;
41704;Laerm;861;48.808;9.006;2023-10-31T08:00:10;35.88;34.64;37.16;;
41704;Laerm;861;48.808;9.006;2023-10-31T08:02:37;36.14;34.88;37.35;;
41704;Laerm;861;48.808;9.006;2023-10-31T08:05:04;36.13;34.90;37.56;;
41704;Laerm;861;48.808;9.006;2023-10-31T08:07:31;36.04;34.72;37.25;;
41704;Laerm;861;48.808;9.006;2023-10-31T08:09:57;36.36;35.08;37.47;;
41704;Laerm;861;48.808;9.006;2023-10-31T08:12:24;36.28;34.97;37.37;;
41704;Laerm;861;48.808;9.006;2023-10-31T08:14:51;36.36;34.71;37.65;;
41704;Laerm;861;48.808;9.006;2023-10-31T08:17:17;36.38;35.07;37.76;;
41704;Laerm;861;48.808;9.006;2023-10-31T08:19:44;36.44;35.09;37.79;;
41704;Laerm;861;48.808;9.006;2023-10-31T08:22:10;36.57;35.10;37.74;;
41704;Laerm;861;48.808;9.006;2023-10-31T08:24:37;36.69;35.44;37.77;;
41704;Laerm;861;48.808;9.006;2023-10-31T08:27:05;36.41;35.13;37.62;;
41704;Laerm;861;48.808;9.006;2023-10-31T08:29:33;36.40;35.09;37.49;;
41704;Laerm;861;48.808;9.006;2023-10-31T08:32:00;36.42;35.17;37.60;;
41704;Laerm;861;48.808;9.006;2023-10-31T08:34:26;36.22;34.90;37.50;;
41704;Laerm;861;48.808;9.006;2023-10-31T08:36:53;36.37;34.60;37.61;;
41704;Laerm;861;48.808;9.006;2023-10-31T08:39:20;36.66;35.32;37.82;;
41704;Laerm;861;48.808;9.006;2023-10-31T08:41:57;36.83;35.38;38.13;;
41704;Laerm;861;48.808;9.006;2023-10-31T08:44:24;36.96;35.66;38.14;;
41704;Laerm;861;48.808;9.006;2023-10-31T08:46:51;36.93;35.63;38.40;;
41704;Laerm;861;48.808;9.006;2023-10-31T08:49:18;37.10;35.88;38.26;;
41704;Laerm;861;48.808;9.006;2023-10-31T08:51:46;37.22;35.87;38.32;;
41704;Laerm;861;48.808;9.006;2023-10-31T08:54:12;37.01;35.59;38.14;;
41704;Laerm;861;48.808;9.006;2023-10-31T08:56:39;37.08;35.86;38.21;;
41704;Laerm;861;48.808;9.006;2023-10-31T08:59:05;37.18;35.92;38.34;;
41704;Laerm;861;48.808;9.006;2023-10-31T09:01:33;37.30;36.04;38.48;;
41704;Laerm;861;48.808;9.006;2023-10-31T09:04:02;37.19;35.83;38.23;;
41704;Laerm;861;48.808;9.006;2023-10-31T09:06:29;37.22;35.96;38.54;;
41704;Laerm;861;48.808;9.006;2023-10-31T09:08:55;37.23;36.00;38.32;;
41704;Laerm;861;48.808;9.006;2023-10-31T09:11:22;37.33;35.76;38.49;;
41704;Laerm;861;48.808;9.006;2023-10-31T09:13:48;37.25;36.01;38.74;;
41704;Laerm;861;48.808;9.006;2023-10-31T09:16:15;37.27;35.93;38.48;;
41704;Laerm;861;48.808;9.006;2023-10-31T09:18:41;37.33;36.04;38.81;;
41704;Laerm;861;48.808;9.006;2023-10-31T09:21:09;37.55;36.04;38.62;;
41704;Laerm;861;48.808;9.006;2023-10-31T09:23:36;37.82;36.55;39.06;;
41704;Laerm;861;48.808;9.006;2023-10-31T09:26:03;37.89;36.58;39.09;;
41704;Laerm;861;48.808;9.006;2023-10-31T09:28:29;37.94;36.70;39.33;;
41704;Laerm;861;48.808;9.006;2023-10-31T09:30:56;38.00;36.52;39.13;;
41704;Laerm;861;48.808;9.006;2023-10-31T09:33:23;38.03;36.63;39.43;;
41704;Laerm;861;48.808;9.006;2023-10-31T09:35:49;38.08;36.69;39.96;;
41704;Laerm;861;48.808;9.006;2023-10-31T09:38:16;38.14;36.74;39.50;;
41704;Laerm;861;48.808;9.006;2023-10-31T09:40:43;38.21;36.79;39.49;;
41704;Laerm;861;48.808;9.006;2023-10-31T09:43:09;38.18;36.57;39.40;;
41704;Laerm;861;48.808;9.006;2023-10-31T09:45:37;38.14;36.83;39.52;;
41704;Laerm;861;48.808;9.006;2023-10-31T09:48:04;38.20;36.83;39.40;;
41704;Laerm;861;48.808;9.006;2023-10-31T09:50:31;38.11;36.76;39.33;;
41704;Laerm;861;48.808;9.006;2023-10-31T09:53:01;37.99;36.65;39.14;;
41704;Laerm;861;48.808;9.006;2023-10-31T09:55:28;37.99;36.66;39.07;;
41704;Laerm;861;48.808;9.006;2023-10-31T09:57:55;37.97;36.68;39.16;;
41704;Laerm;861;48.808;9.006;2023-10-31T10:00:22;37.95;36.58;39.30;;
41704;Laerm;861;48.808;9.006;2023-10-31T10:02:50;37.97;36.62;39.04;;
41704;Laerm;861;48.808;9.006;2023-10-31T10:05:18;37.97;36.68;39.11;;
41704;Laerm;861;48.808;9.006;2023-10-31T10:07:45;38.06;36.52;39.29;;
41704;Laerm;861;48.808;9.006;2023-10-31T10:10:13;38.07;36.91;39.28;;
41704;Laerm;861;48.808;9.006;2023-10-31T10:12:45;38.05;36.51;39.33;;
41704;Laerm;861;48.808;9.006;2023-10-31T10:15:13;38.06;36.55;42.28;;
41704;Laerm;861;48.808;9.006;2023-10-31T10:17:48;38.01;36.69;39.22;;
41704;Laerm;861;48.808;9.006;2023-10-31T10:20:14;37.97;36.74;39.07;;
41704;Laerm;861;48.808;9.006;2023-10-31T10:22:44;37.90;36.73;39.12;;
41704;Laerm;861;48.808;9.006;2023-10-31T10:25:17;37.94;36.45;39.07;;
41704;Laerm;861;48.808;9.006;2023-10-31T10:27:48;37.85;36.66;39.06;;
41704;Laerm;861;48.808;9.006;2023-10-31T10:30:16;37.71;36.38;38.83;;
41704;Laerm;861;48.808;9.006;2023-10-31T10:32:43;37.74;36.54;39.33;;
41704;Laerm;861;48.808;9.006;2023-10-31T10:35:09;37.69;36.42;38.92;;
41704;Laerm;861;48.808;9.006;2023-10-31T10:37:39;37.60;36.20;39.01;;
41704;Laerm;861;48.808;9.006;2023-10-31T10:40:13;37.71;36.41;38.98;;
41704;Laerm;861;48.808;9.006;2023-10-31T10:42:50;37.60;36.26;39.02;;
41704;Laerm;861;48.808;9.006;2023-10-31T10:45:24;37.86;36.54;39.10;;
41704;Laerm;861;48.808;9.006;2023-10-31T10:47:54;37.92;36.49;39.25;;
41704;Laerm;861;48.808;9.006;2023-10-31T10:50:30;37.87;36.32;38.96;;
41704;Laerm;861;48.808;9.006;2023-10-31T10:53:24;37.90;36.51;39.18;;
41704;Laerm;861;48.808;9.006;2023-10-31T10:56:25;37.90;36.58;39.17;;
41704;Laerm;861;48.808;9.006;2023-10-31T10:59:09;38.00;36.67;39.28;;
41704;Laerm;861;48.808;9.006;2023-10-31T11:01:41;38.04;36.75;39.26;;
41704;Laerm;861;48.808;9.006;2023-10-31T11:04:09;38.00;36.63;39.11;;
41704;Laerm;861;48.808;9.006;2023-10-31T11:06:38;37.95;36.53;39.44;;
41704;Laerm;861;48.808;9.006;2023-10-31T11:09:06;37.94;36.60;39.20;;
41704;Laerm;861;48.808;9.006;2023-10-31T11:11:34;37.92;36.49;39.01;;
41704;Laerm;861;48.808;9.006;2023-10-31T11:14:02;37.93;36.80;39.19;;
41704;Laerm;861;48.808;9.006;2023-10-31T11:16:59;38.05;36.70;39.44;;
41704;Laerm;861;48.808;9.006;2023-10-31T11:19:32;38.04;36.67;39.36;;
41704;Laerm;861;48.808;9.006;2023-10-31T11:22:02;38.01;36.51;39.29;;
41704;Laerm;861;48.808;9.006;2023-10-31T11:24:37;38.08;36.76;39.29;;
41704;Laerm;861;48.808;9.006;2023-10-31T11:27:07;38.05;36.79;39.19;;
41704;Laerm;861;48.808;9.006;2023-10-31T11:29:36;38.00;36.69;39.19;;
41704;Laerm;861;48.808;9.006;2023-10-31T11:32:04;37.99;36.54;39.30;;
41704;Laerm;861;48.808;9.006;2023-10-31T11:34:38;37.95;36.73;39.22;;
41704;Laerm;861;48.808;9.006;2023-10-31T11:37:32;37.96;36.76;39.35;;
41704;Laerm;861;48.808;9.006;2023-10-31T11:40:22;37.99;36.74;39.28;;
41704;Laerm;861;48.808;9.006;2023-10-31T11:43:01;38.00;36.58;39.11;;
41704;Laerm;861;48.808;9.006;2023-10-31T11:45:36;37.97;36.58;39.25;;
41704;Laerm;861;48.808;9.006;2023-10-31T11:48:04;38.03;36.85;39.35;;
41704;Laerm;861;48.808;9.006;2023-10-31T11:50:33;38.03;36.82;39.14;;
41704;Laerm;861;48.808;9.006;2023-10-31T11:53:14;38.02;36.73;39.22;;
41704;Laerm;861;48.808;9.006;2023-10-31T11:55:46;38.04;36.76;39.31;;
41704;Laerm;861;48.808;9.006;2023-10-31T11:58:24;38.04;36.59;39.13;;
41704;Laerm;861;48.808;9.006;2023-10-31T12:01:06;38.08;36.58;39.32;;
41704;Laerm;861;48.808;9.006;2023-10-31T12:03:43;38.08;36.80;39.38;;
41704;Laerm;861;48.808;9.006;2023-10-31T12:06:15;38.06;36.78;39.23;;
41704;Laerm;861;48.808;9.006;2023-10-31T12:08:44;38.05;36.69;39.22;;
41704;Laerm;861;48.808;9.006;2023-10-31T12:11:23;38.11;36.97;39.30;;
41704;Laerm;861;48.808;9.006;2023-10-31T12:14:00;38.08;36.59;39.16;;
41704;Laerm;861;48.808;9.006;2023-10-31T12:16:31;38.06;36.73;39.36;;
41704;Laerm;861;48.808;9.006;2023-10-31T12:19:06;38.14;36.68;39.39;;
41704;Laerm;861;48.808;9.006;2023-10-31T12:21:44;38.26;36.91;39.56;;
41704;Laerm;861;48.808;9.006;2023-10-31T12:24:17;38.19;36.79;39.43;;
41704;Laerm;861;48.808;9.006;2023-10-31T12:26:45;38.13;36.90;39.44;;
41704;Laerm;861;48.808;9.006;2023-10-31T12:29:20;38.07;36.53;41.90;;
41704;Laerm;861;48.808;9.006;2023-10-31T12:31:53;38.06;36.53;39.16;;
41704;Laerm;861;48.808;9.006;2023-10-31T12:34:23;38.03;36.76;39.18;;
41704;Laerm;861;48.808;9.006;2023-10-31T12:36:53;38.06;36.60;41.99;;
41704;Laerm;861;48.808;9.006;2023-10-31T12:39:27;38.04;36.79;39.26;;
41704;Laerm;861;48.808;9.006;2023-10-31T12:41:56;38.00;36.50;39.09;;
41704;Laerm;861;48.808;9.006;2023-10-31T12:44:27;38.00;36.80;39.30;;
41704;Laerm;861;48.808;9.006;2023-10-31T12:46:54;37.99;36.83;39.21;;
41704;Laerm;861;48.808;9.006;2023-10-31T12:49:22;37.97;36.53;39.29;;
41704;Laerm;861;48.808;9.006;2023-10-31T12:52:04;38.00;36.57;39.16;;
41704;Laerm;861;48.808;9.006;2023-10-31T12:54:39;37.98;36.73;39.53;;
41704;Laerm;861;48.808;9.006;2023-10-31T12:57:08;38.03;36.60;39.32;;
41704;Laerm;861;48.808;9.006;2023-10-31T12:59:38;38.07;36.84;39.25;;
41704;Laerm;861;48.808;9.006;2023-10-31T13:02:05;38.10;36.75;39.40;;
41704;Laerm;861;48.808;9.006;2023-10-31T13:04:33;38.07;36.54;39.36;;
41704;Laerm;861;48.808;9.006;2023-10-31T13:07:07;38.04;36.70;39.21;;
41704;Laerm;861;48.808;9.006;2023-10-31T13:09:38;38.06;36.81;39.50;;
41704;Laerm;861;48.808;9.006;2023-10-31T13:12:09;38.03;36.68;39.29;;
41704;Laerm;861;48.808;9.006;2023-10-31T13:14:37;38.02;36.73;39.22;;
41704;Laerm;861;48.808;9.006;2023-10-31T13:17:05;38.04;36.65;39.24;;
41704;Laerm;861;48.808;9.006;2023-10-31T13:19:32;38.05;36.69;39.37;;
41704;Laerm;861;48.808;9.006;2023-10-31T13:21:58;38.04;36.75;39.25;;
41704;Laerm;861;48.808;9.006;2023-10-31T13:24:25;38.04;36.59;39.33;;
41704;Laerm;861;48.808;9.006;2023-10-31T13:26:51;38.04;36.75;39.17;;
41704;Laerm;861;48.808;9.006;2023-10-31T13:29:19;38.01;36.61;39.26;;
41704;Laerm;861;48.808;9.006;2023-10-31T13:31:46;38.00;36.63;39.13;;
41704;Laerm;861;48.808;9.006;2023-10-31T13:34:12;37.97;36.62;39.25;;
41704;Laerm;861;48.808;9.006;2023-10-31T13:36:39;37.99;36.55;39.26;;
41704;Laerm;861;48.808;9.006;2023-10-31T13:39:05;38.02;36.64;39.28;;
41704;Laerm;861;48.808;9.006;2023-10-31T13:41:32;38.08;36.68;43.76;;
41704;Laerm;861;48.808;9.006;2023-10-31T13:43:59;38.06;36.77;39.45;;
41704;Laerm;861;48.808;9.006;2023-10-31T13:46:26;38.08;36.82;39.21;;
41704;Laerm;861;48.808;9.006;2023-10-31T13:48:52;38.06;36.70;39.22;;
41704;Laerm;861;48.808;9.006;2023-10-31T13:51:19;38.10;36.46;39.29;;
41704;Laerm;861;48.808;9.006;2023-10-31T13:53:45;38.08;36.79;39.42;;
41704;Laerm;861;48.808;9.006;2023-10-31T13:56:12;38.07;36.89;39.46;;
41704;Laerm;861;48.808;9.006;2023-10-31T13:58:38;38.05;36.46;39.16;;
41704;Laerm;861;48.808;9.006;2023-10-31T14:01:05;38.07;36.82;39.25;;
41704;Laerm;861;48.808;9.006;2023-10-31T14:03:32;38.05;36.46;39.22;;
41704;Laerm;861;48.808;9.006;2023-10-31T14:05:59;38.04;36.63;39.21;;
41704;Laerm;861;48.808;9.006;2023-10-31T14:08:25;38.03;36.67;39.18;;
41704;Laerm;861;48.808;9.006;2023-10-31T14:10:52;38.00;36.68;39.07;;
41704;Laerm;861;48.808;9.006;2023-10-31T14:13:18;38.02;36.85;39.30;;
41704;Laerm;861;48.808;9.006;2023-10-31T14:15:46;37.99;36.67;39.18;;